createdAt,value
2023-03-17T00:00:52.270Z,1.70
2023-03-17T00:03:24.551Z,1.70
2023-03-17T00:05:51.869Z,1.70
2023-03-17T00:08:23.010Z,1.70
2023-03-17T00:10:50.133Z,1.70
2023-03-17T00:13:17.463Z,1.80
2023-03-17T00:15:44.929Z,1.80
2023-03-17T00:18:13.696Z,1.80
2023-03-17T00:20:40.292Z,1.90
2023-03-17T00:23:11.682Z,1.80
2023-03-17T00:25:43.197Z,1.90
2023-03-17T00:28:15.270Z,1.90
2023-03-17T00:30:41.759Z,1.90
2023-03-17T00:33:09.960Z,1.80
2023-03-17T00:35:36.720Z,1.80
2023-03-17T00:38:03.291Z,1.80
2023-03-17T00:40:31.138Z,1.80
2023-03-17T00:42:59.850Z,1.70
2023-03-17T00:45:29.889Z,1.70
2023-03-17T00:47:56.407Z,1.80
2023-03-17T00:50:24.392Z,1.70
2023-03-17T00:52:51.939Z,1.80
2023-03-17T00:55:19.615Z,1.80
2023-03-17T00:57:47.341Z,1.80
2023-03-17T01:00:17.579Z,1.80
2023-03-17T01:02:45.510Z,1.80
2023-03-17T01:05:12.317Z,1.70
2023-03-17T01:07:39.360Z,1.70
2023-03-17T01:10:14.148Z,1.70
2023-03-17T01:12:40.723Z,1.60
2023-03-17T01:15:07.448Z,1.60
2023-03-17T01:17:33.952Z,1.50
2023-03-17T01:20:00.511Z,1.50
2023-03-17T01:22:27.073Z,1.60
2023-03-17T01:24:53.661Z,1.60
2023-03-17T01:27:20.143Z,1.60
2023-03-17T01:29:46.676Z,1.60
2023-03-17T01:32:13.271Z,1.60
2023-03-17T01:34:39.814Z,1.60
2023-03-17T01:37:06.905Z,1.60
2023-03-17T01:39:33.446Z,1.60
2023-03-17T01:42:01.259Z,1.60
2023-03-17T01:44:27.806Z,1.60
2023-03-17T01:46:54.586Z,1.60
2023-03-17T01:49:42.299Z,1.60
2023-03-17T01:52:14.196Z,1.60
2023-03-17T01:54:56.340Z,1.60
2023-03-17T01:57:25.248Z,1.50
2023-03-17T01:59:58.144Z,1.60
2023-03-17T02:02:28.715Z,1.50
2023-03-17T02:04:55.276Z,1.50
2023-03-17T02:07:22.998Z,1.50
2023-03-17T02:09:49.829Z,1.50
2023-03-17T02:12:16.391Z,1.60
2023-03-17T02:14:44.052Z,1.60
2023-03-17T02:17:10.595Z,1.60
2023-03-17T02:19:37.410Z,1.60
2023-03-17T02:22:03.929Z,1.70
2023-03-17T02:24:30.850Z,1.70
2023-03-17T02:27:00.246Z,1.60
2023-03-17T02:29:27.618Z,1.60
2023-03-17T02:31:54.574Z,1.60
2023-03-17T02:34:21.143Z,1.60
2023-03-17T02:36:47.766Z,1.60
2023-03-17T02:39:14.312Z,1.60
2023-03-17T02:41:41.754Z,1.60
2023-03-17T02:44:08.411Z,1.60
2023-03-17T02:46:34.951Z,1.70
2023-03-17T02:49:01.918Z,1.60
2023-03-17T02:51:28.457Z,1.70
2023-03-17T02:53:55.217Z,1.60
2023-03-17T02:56:21.756Z,1.60
2023-03-17T02:58:48.347Z,1.60
2023-03-17T03:01:15.607Z,1.70
2023-03-17T03:03:42.226Z,1.80
2023-03-17T03:06:08.718Z,1.90
2023-03-17T03:08:36.931Z,1.80
2023-03-17T03:11:04.896Z,1.70
2023-03-17T03:13:31.517Z,1.70
2023-03-17T03:15:58.255Z,1.60
2023-03-17T03:18:24.878Z,1.50
2023-03-17T03:20:51.406Z,1.50
2023-03-17T03:23:17.960Z,1.40
2023-03-17T03:25:44.520Z,1.40
2023-03-17T03:28:11.118Z,1.40
2023-03-17T03:30:37.834Z,1.40
2023-03-17T03:33:05.164Z,1.40
2023-03-17T03:35:31.741Z,1.40
2023-03-17T03:37:58.305Z,1.40
2023-03-17T03:40:25.132Z,1.40
2023-03-17T03:42:51.787Z,1.40
2023-03-17T03:45:18.520Z,1.40
2023-03-17T03:47:45.336Z,1.50
2023-03-17T03:50:11.883Z,1.50
2023-03-17T03:52:38.404Z,1.50
2023-03-17T03:55:05.120Z,1.50
2023-03-17T03:57:31.714Z,1.50
2023-03-17T03:59:58.241Z,1.90
2023-03-17T04:02:24.780Z,1.80
2023-03-17T04:04:51.686Z,1.80
2023-03-17T04:07:18.211Z,1.70
2023-03-17T04:09:44.702Z,1.70
2023-03-17T04:12:11.499Z,1.70
2023-03-17T04:14:38.004Z,1.70
2023-03-17T04:17:05.214Z,1.80
2023-03-17T04:19:32.353Z,1.80
2023-03-17T04:21:58.905Z,1.90
2023-03-17T04:24:25.621Z,1.80
2023-03-17T04:26:52.145Z,1.80
2023-03-17T04:29:19.056Z,1.80
2023-03-17T04:31:45.827Z,1.70
2023-03-17T04:34:16.529Z,1.80
2023-03-17T04:36:43.854Z,1.80
2023-03-17T04:39:10.738Z,1.70
2023-03-17T04:41:37.815Z,1.70
2023-03-17T04:44:04.765Z,1.70
2023-03-17T04:46:31.792Z,1.80
2023-03-17T04:48:58.318Z,1.80
2023-03-17T04:51:24.842Z,1.90
2023-03-17T04:53:52.388Z,1.80
2023-03-17T04:56:19.068Z,1.80
2023-03-17T04:58:45.739Z,1.70
2023-03-17T05:01:12.304Z,1.60
2023-03-17T05:03:38.942Z,1.60
2023-03-17T05:06:06.113Z,1.60
2023-03-17T05:08:32.884Z,1.50
2023-03-17T05:10:59.405Z,1.50
2023-03-17T05:13:26.336Z,1.40
2023-03-17T05:15:53.582Z,1.40
2023-03-17T05:18:21.411Z,1.30
2023-03-17T05:20:47.915Z,1.30
2023-03-17T05:23:15.121Z,1.30
2023-03-17T05:25:41.963Z,1.30
2023-03-17T05:28:08.741Z,1.30
2023-03-17T05:30:38.339Z,1.30
2023-03-17T05:33:06.033Z,1.30
2023-03-17T05:35:32.648Z,1.30
2023-03-17T05:37:59.634Z,1.30
2023-03-17T05:40:26.558Z,1.30
2023-03-17T05:42:53.144Z,1.40
2023-03-17T05:45:19.753Z,1.40
2023-03-17T05:47:46.383Z,1.40
2023-03-17T05:50:12.993Z,1.50
2023-03-17T05:52:39.568Z,1.70
2023-03-17T05:55:07.198Z,1.90
2023-03-17T05:57:33.855Z,1.90
2023-03-17T06:00:00.384Z,2.10
2023-03-17T06:02:27.169Z,2.20
2023-03-17T06:04:53.769Z,2.40
2023-03-17T06:07:20.519Z,2.30
2023-03-17T06:09:47.597Z,2.20
2023-03-17T06:12:14.105Z,2.20
2023-03-17T06:14:40.721Z,2.20
2023-03-17T06:17:07.471Z,2.20
2023-03-17T06:19:34.001Z,2.30
2023-03-17T06:22:00.524Z,2.30
2023-03-17T06:24:27.027Z,2.30
2023-03-17T06:26:53.529Z,2.40
2023-03-17T06:29:20.181Z,2.40
2023-03-17T06:31:51.227Z,2.40
2023-03-17T06:34:18.573Z,2.50
2023-03-17T06:36:45.535Z,2.60
2023-03-17T06:39:12.708Z,2.70
2023-03-17T06:41:39.296Z,2.70
2023-03-17T06:44:06.341Z,2.80
2023-03-17T06:46:33.394Z,2.90
2023-03-17T06:48:59.937Z,3.00
2023-03-17T06:51:26.854Z,3.00
2023-03-17T06:53:53.522Z,3.00
2023-03-17T06:56:29.553Z,3.00
2023-03-17T06:58:56.240Z,3.10
2023-03-17T07:01:23.470Z,3.10
2023-03-17T07:03:50.074Z,3.20
2023-03-17T07:06:16.580Z,3.40
2023-03-17T07:08:43.227Z,3.60
2023-03-17T07:11:09.859Z,3.70
2023-03-17T07:13:38.694Z,3.90
2023-03-17T07:16:05.473Z,4.10
2023-03-17T07:18:32.085Z,4.30
2023-03-17T07:20:58.790Z,4.50
2023-03-17T07:23:26.112Z,4.70
2023-03-17T07:25:52.617Z,4.80
2023-03-17T07:28:19.544Z,4.80
2023-03-17T07:30:47.603Z,4.90
2023-03-17T07:33:14.172Z,4.90
2023-03-17T07:35:41.573Z,4.90
2023-03-17T07:38:08.189Z,5.00
2023-03-17T07:40:35.518Z,5.00
2023-03-17T07:43:02.498Z,5.10
2023-03-17T07:45:29.308Z,5.20
2023-03-17T07:47:56.074Z,5.40
2023-03-17T07:50:23.172Z,5.50
2023-03-17T07:52:49.694Z,5.50
2023-03-17T07:55:16.503Z,5.60
2023-03-17T07:57:43.365Z,5.60
2023-03-17T08:00:10.602Z,5.60
2023-03-17T08:02:37.344Z,5.70
2023-03-17T08:05:04.447Z,5.90
2023-03-17T08:07:31.586Z,5.90
2023-03-17T08:09:58.215Z,6.00
2023-03-17T08:12:25.540Z,6.00
2023-03-17T08:14:52.382Z,6.10
2023-03-17T08:17:19.012Z,6.30
2023-03-17T08:19:45.638Z,6.40
2023-03-17T08:22:12.454Z,6.50
2023-03-17T08:24:41.107Z,6.60
2023-03-17T08:27:08.724Z,6.70
2023-03-17T08:29:35.941Z,6.80
2023-03-17T08:32:02.727Z,6.90
2023-03-17T08:34:29.241Z,7.00
2023-03-17T08:36:56.850Z,7.10
2023-03-17T08:39:23.832Z,7.20
2023-03-17T08:41:50.978Z,7.10
2023-03-17T08:44:17.521Z,7.20
2023-03-17T08:46:44.537Z,7.30
2023-03-17T08:49:11.643Z,7.50
2023-03-17T08:51:38.554Z,7.50
2023-03-17T08:54:05.983Z,7.70
2023-03-17T08:56:32.559Z,7.60
2023-03-17T08:58:59.148Z,7.60
2023-03-17T09:01:27.337Z,7.60
2023-03-17T09:03:54.704Z,7.70
2023-03-17T09:06:22.114Z,7.80
2023-03-17T09:08:51.076Z,7.80
2023-03-17T09:11:18.841Z,8.00
2023-03-17T09:13:46.402Z,8.10
2023-03-17T09:16:18.051Z,8.20
2023-03-17T09:18:46.187Z,8.40
2023-03-17T09:21:13.494Z,8.50
2023-03-17T09:23:41.055Z,8.50
2023-03-17T09:26:07.849Z,8.40
2023-03-17T09:28:34.764Z,8.50
2023-03-17T09:31:02.460Z,8.70
2023-03-17T09:33:29.892Z,8.80
2023-03-17T09:35:59.387Z,9.00
2023-03-17T09:38:27.402Z,8.90
2023-03-17T09:40:57.451Z,8.90
2023-03-17T09:43:31.630Z,8.90
2023-03-17T09:46:02.071Z,8.90
2023-03-17T09:48:32.279Z,9.10
2023-03-17T09:51:04.764Z,9.20
2023-03-17T09:53:34.253Z,9.40
2023-03-17T09:56:04.725Z,9.40
2023-03-17T09:58:32.318Z,9.30
2023-03-17T10:00:59.733Z,9.40
2023-03-17T10:03:27.231Z,9.30
2023-03-17T10:05:58.647Z,9.30
2023-03-17T10:08:32.453Z,9.40
2023-03-17T10:11:25.454Z,9.40
2023-03-17T10:13:59.877Z,9.60
2023-03-17T10:16:43.179Z,9.80
2023-03-17T10:19:23.779Z,9.90
2023-03-17T10:21:53.364Z,10.00
2023-03-17T10:24:21.092Z,10.00
2023-03-17T10:26:50.841Z,10.10
2023-03-17T10:29:18.758Z,10.30
2023-03-17T10:31:45.333Z,10.30
2023-03-17T10:34:19.931Z,10.40
2023-03-17T10:36:47.779Z,10.50
2023-03-17T10:39:17.465Z,10.50
2023-03-17T10:41:53.424Z,10.50
2023-03-17T10:44:29.324Z,10.50
2023-03-17T10:46:56.382Z,10.60
2023-03-17T10:49:24.539Z,10.60
2023-03-17T10:51:55.537Z,10.60
2023-03-17T10:54:24.602Z,10.60
2023-03-17T10:56:59.264Z,10.70
2023-03-17T10:59:28.388Z,10.80
2023-03-17T11:02:01.402Z,10.70
2023-03-17T11:04:29.651Z,10.80
2023-03-17T11:06:57.799Z,10.90
2023-03-17T11:09:25.945Z,11.00
2023-03-17T11:12:01.730Z,11.20
2023-03-17T11:14:28.356Z,11.30
2023-03-17T11:16:56.124Z,11.30
2023-03-17T11:19:30.697Z,11.40
2023-03-17T11:22:12.705Z,11.60
2023-03-17T11:24:55.766Z,11.80
2023-03-17T11:27:30.838Z,11.90
2023-03-17T11:30:14.913Z,12.10
2023-03-17T11:32:43.657Z,12.20
2023-03-17T11:35:29.026Z,12.30
2023-03-17T11:38:02.809Z,12.40
2023-03-17T11:40:34.574Z,12.50
2023-03-17T11:43:13.018Z,12.50
2023-03-17T11:45:51.810Z,12.50
2023-03-17T11:48:42.937Z,12.50
2023-03-17T11:51:16.020Z,12.60
2023-03-17T11:53:53.226Z,12.70
2023-03-17T11:56:20.976Z,12.80
2023-03-17T11:58:54.422Z,12.80
2023-03-17T12:01:27.094Z,12.90
2023-03-17T12:03:56.640Z,12.90
2023-03-17T12:06:29.488Z,12.70
2023-03-17T12:09:01.512Z,12.80
2023-03-17T12:11:29.926Z,12.90
2023-03-17T12:14:05.846Z,13.00
2023-03-17T12:16:38.431Z,13.10
2023-03-17T12:19:26.162Z,13.20
2023-03-17T12:21:55.529Z,13.20
2023-03-17T12:24:24.912Z,13.40
2023-03-17T12:26:57.640Z,13.50
2023-03-17T12:29:39.671Z,13.60
2023-03-17T12:32:15.917Z,13.60
2023-03-17T12:34:44.902Z,13.60
2023-03-17T12:37:11.795Z,13.60
2023-03-17T12:39:41.200Z,13.70
2023-03-17T12:42:21.133Z,13.70
2023-03-17T12:44:47.836Z,13.70
2023-03-17T12:47:32.850Z,13.70
2023-03-17T12:50:06.925Z,13.70
2023-03-17T12:52:53.829Z,13.70
2023-03-17T12:55:23.425Z,13.80
2023-03-17T12:57:59.597Z,13.90
2023-03-17T13:00:29.551Z,13.90
2023-03-17T13:03:20.256Z,13.80
2023-03-17T13:05:49.521Z,13.90
2023-03-17T13:08:22.078Z,14.10
2023-03-17T13:10:49.056Z,14.20
2023-03-17T13:13:36.469Z,14.20
2023-03-17T13:16:05.505Z,14.30
2023-03-17T13:18:46.603Z,14.40
2023-03-17T13:21:14.673Z,14.40
2023-03-17T13:23:43.929Z,14.50
2023-03-17T13:26:14.699Z,14.40
2023-03-17T13:28:43.127Z,14.30
2023-03-17T13:31:16.160Z,14.30
2023-03-17T13:33:49.832Z,14.20
2023-03-17T13:36:17.144Z,14.00
2023-03-17T13:39:19.260Z,13.90
2023-03-17T13:41:49.421Z,13.70
2023-03-17T13:47:47.022Z,13.60
2023-03-17T13:50:15.934Z,13.40
2023-03-17T13:52:49.703Z,13.40
2023-03-17T13:55:20.323Z,13.40
2023-03-17T13:58:05.833Z,13.40
2023-03-17T14:00:33.177Z,13.40
2023-03-17T14:03:10.390Z,13.40
2023-03-17T14:05:38.055Z,13.40
2023-03-17T14:08:06.300Z,13.40
2023-03-17T14:10:33.620Z,13.50
2023-03-17T14:13:12.436Z,13.60
2023-03-17T14:16:00.159Z,13.70
2023-03-17T14:18:34.177Z,13.80
2023-03-17T14:21:02.307Z,13.80
2023-03-17T14:23:29.964Z,13.90
2023-03-17T14:25:57.645Z,13.80
2023-03-17T14:28:28.883Z,13.70
2023-03-17T14:30:59.445Z,13.50
2023-03-17T14:33:27.465Z,13.40
2023-03-17T14:35:59.880Z,13.20
2023-03-17T14:38:28.595Z,13.00
2023-03-17T14:41:07.362Z,12.90
2023-03-17T14:43:35.304Z,12.90
2023-03-17T14:46:17.763Z,12.90
2023-03-17T14:48:47.158Z,12.90
2023-03-17T14:51:19.709Z,12.90
2023-03-17T14:53:46.533Z,12.90
2023-03-17T14:56:13.679Z,13.00
2023-03-17T14:58:44.265Z,13.00
2023-03-17T15:01:18.516Z,13.00
2023-03-17T15:03:56.424Z,13.00
2023-03-17T15:06:27.429Z,13.00
2023-03-17T15:08:54.374Z,13.00
2023-03-17T15:11:21.298Z,12.90
2023-03-17T15:13:48.541Z,13.00
2023-03-17T15:16:17.564Z,12.90
2023-03-17T15:18:44.419Z,13.00
2023-03-17T15:21:43.355Z,12.90
2023-03-17T15:24:21.919Z,12.90
2023-03-17T15:26:48.429Z,12.80
2023-03-17T15:29:14.947Z,12.80
2023-03-17T15:31:41.454Z,12.70
2023-03-17T15:34:11.393Z,12.60
2023-03-17T15:36:37.892Z,12.60
2023-03-17T15:39:04.704Z,12.50
2023-03-17T15:41:31.247Z,12.40
2023-03-17T15:43:57.738Z,12.30
2023-03-17T15:46:25.461Z,12.20
2023-03-17T15:48:52.012Z,12.00
2023-03-17T15:51:18.745Z,11.80
2023-03-17T15:53:47.290Z,11.70
2023-03-17T15:56:21.002Z,11.60
2023-03-17T15:58:49.192Z,11.50
2023-03-17T16:01:16.371Z,11.50
2023-03-17T16:03:45.245Z,11.40
2023-03-17T16:06:14.987Z,11.40
2023-03-17T16:08:41.557Z,11.30
2023-03-17T16:11:14.560Z,11.20
2023-03-17T16:13:41.239Z,11.10
2023-03-17T16:16:13.429Z,11.10
2023-03-17T16:18:40.596Z,11.10
2023-03-17T16:21:07.786Z,11.00
2023-03-17T16:23:37.253Z,10.90
2023-03-17T16:26:14.757Z,10.80
2023-03-17T16:28:42.924Z,10.80
2023-03-17T16:31:18.138Z,10.70
2023-03-17T16:33:44.898Z,10.60
2023-03-17T16:36:15.609Z,10.50
2023-03-17T16:38:42.242Z,10.50
2023-03-17T16:41:16.605Z,10.40
2023-03-17T16:43:44.096Z,10.30
2023-03-17T16:46:11.335Z,10.40
2023-03-17T16:48:37.865Z,10.40
2023-03-17T16:51:05.155Z,10.40
2023-03-17T16:53:31.708Z,10.40
2023-03-17T16:55:58.317Z,10.40
2023-03-17T16:58:26.338Z,10.30
2023-03-17T17:00:55.421Z,10.30
2023-03-17T17:03:21.907Z,10.20
2023-03-17T17:05:48.495Z,10.00
2023-03-17T17:08:15.029Z,9.90
2023-03-17T17:10:41.734Z,9.70
2023-03-17T17:13:09.070Z,9.50
2023-03-17T17:15:36.493Z,9.40
2023-03-17T17:18:05.051Z,9.30
2023-03-17T17:20:33.507Z,9.10
2023-03-17T17:23:01.056Z,8.90
2023-03-17T17:25:28.205Z,8.80
2023-03-17T17:27:55.573Z,8.60
2023-03-17T17:30:25.450Z,8.50
2023-03-17T17:32:52.147Z,8.30
2023-03-17T17:35:18.722Z,8.30
2023-03-17T17:37:45.541Z,8.10
2023-03-17T17:40:13.515Z,8.20
2023-03-17T17:42:40.151Z,8.10
2023-03-17T17:45:07.899Z,8.00
2023-03-17T17:47:34.397Z,7.90
2023-03-17T17:50:01.044Z,7.80
2023-03-17T17:52:27.598Z,7.70
2023-03-17T17:54:54.106Z,7.70
2023-03-17T17:57:20.677Z,7.60
2023-03-17T17:59:47.178Z,7.50
2023-03-17T18:02:13.830Z,7.50
2023-03-17T18:04:41.486Z,7.50
2023-03-17T18:07:08.059Z,7.40
2023-03-17T18:09:34.890Z,7.30
2023-03-17T18:12:01.499Z,7.30
2023-03-17T18:14:28.006Z,7.20
2023-03-17T18:16:54.549Z,7.10
2023-03-17T18:19:21.156Z,7.10
2023-03-17T18:21:47.710Z,7.00
2023-03-17T18:24:14.807Z,7.00
2023-03-17T18:26:41.635Z,7.00
2023-03-17T18:29:09.104Z,7.00
2023-03-17T18:31:41.406Z,7.00
2023-03-17T18:34:11.476Z,7.00
2023-03-17T18:36:38.114Z,7.00
2023-03-17T18:39:04.833Z,7.00
2023-03-17T18:41:32.321Z,7.00
2023-03-17T18:43:58.874Z,7.10
2023-03-17T18:46:25.808Z,7.00
2023-03-17T18:48:52.394Z,7.00
2023-03-17T18:51:18.929Z,6.90
2023-03-17T18:53:45.465Z,6.80
2023-03-17T18:56:12.463Z,6.80
2023-03-17T18:58:38.950Z,6.70
2023-03-17T19:01:06.202Z,6.70
2023-03-17T19:03:33.194Z,6.60
2023-03-17T19:06:07.138Z,6.60
2023-03-17T19:08:33.696Z,6.50
2023-03-17T19:11:00.217Z,6.40
2023-03-17T19:13:27.225Z,6.30
2023-03-17T19:15:55.259Z,6.30
2023-03-17T19:18:21.782Z,6.30
2023-03-17T19:20:48.365Z,6.20
2023-03-17T19:23:15.363Z,6.10
2023-03-17T19:25:42.123Z,6.10
2023-03-17T19:28:08.904Z,6.00
2023-03-17T19:30:35.860Z,6.00
2023-03-17T19:33:02.983Z,5.90
2023-03-17T19:35:29.918Z,5.80
2023-03-17T19:37:56.476Z,5.80
2023-03-17T19:40:23.150Z,5.80
2023-03-17T19:42:49.856Z,5.80
2023-03-17T19:45:16.508Z,5.90
2023-03-17T19:47:42.994Z,5.90
2023-03-17T19:50:09.918Z,6.00
2023-03-17T19:52:36.594Z,6.00
2023-03-17T19:55:04.319Z,6.10
2023-03-17T19:57:32.041Z,6.10
2023-03-17T19:59:58.589Z,6.20
2023-03-17T20:02:25.093Z,6.10
2023-03-17T20:04:51.679Z,6.10
2023-03-17T20:07:18.337Z,6.10
2023-03-17T20:09:47.859Z,6.00
2023-03-17T20:12:14.788Z,6.00
2023-03-17T20:14:41.799Z,5.90
2023-03-17T20:17:08.309Z,5.90
2023-03-17T20:19:39.010Z,5.80
2023-03-17T20:22:06.382Z,5.80
2023-03-17T20:24:34.404Z,5.80
2023-03-17T20:27:01.790Z,5.70
2023-03-17T20:29:28.713Z,5.70
2023-03-17T20:31:55.970Z,5.70
2023-03-17T20:34:22.886Z,5.70
2023-03-17T20:36:49.538Z,5.70
2023-03-17T20:39:19.760Z,5.70
2023-03-17T20:41:49.856Z,5.70
2023-03-17T20:44:17.661Z,5.70
2023-03-17T20:46:44.533Z,5.70
2023-03-17T20:49:11.444Z,5.70
2023-03-17T20:51:39.231Z,5.70
2023-03-17T20:54:06.130Z,5.70
2023-03-17T20:56:33.993Z,5.70
2023-03-17T20:59:04.800Z,5.70
2023-03-17T21:01:38.998Z,5.70
2023-03-17T21:04:08.593Z,5.70
2023-03-17T21:06:38.698Z,5.70
2023-03-17T21:09:05.233Z,5.80
2023-03-17T21:11:31.755Z,5.80
2023-03-17T21:13:58.588Z,5.80
2023-03-17T21:16:27.705Z,5.80
2023-03-17T21:18:54.291Z,5.80
2023-03-17T21:21:21.698Z,5.80
2023-03-17T21:23:48.323Z,5.80
2023-03-17T21:26:14.954Z,5.80
2023-03-17T21:28:42.482Z,5.80
2023-03-17T21:31:09.826Z,5.70
2023-03-17T21:33:36.410Z,5.70
2023-03-17T21:36:03.170Z,5.60
2023-03-17T21:38:30.200Z,5.60
2023-03-17T21:40:57.582Z,5.60
2023-03-17T21:43:24.717Z,5.60
2023-03-17T21:45:51.767Z,5.60
2023-03-17T21:48:18.359Z,5.60
2023-03-17T21:50:44.901Z,5.60
2023-03-17T21:53:13.720Z,5.70
2023-03-17T21:59:10.970Z,5.60
2023-03-17T22:01:41.727Z,5.50
2023-03-17T22:04:08.731Z,5.50
2023-03-17T22:06:35.466Z,5.50
2023-03-17T22:09:02.833Z,5.50
2023-03-17T22:11:29.362Z,5.40
2023-03-17T22:13:57.136Z,5.40
2023-03-17T22:16:24.354Z,5.40
2023-03-17T22:18:51.624Z,5.40
2023-03-17T22:21:18.692Z,5.40
2023-03-17T22:23:46.185Z,5.30
2023-03-17T22:26:17.226Z,5.30
2023-03-17T22:28:44.655Z,5.30
2023-03-17T22:31:12.344Z,5.30
2023-03-17T22:33:39.178Z,5.30
2023-03-17T22:36:06.009Z,5.40
2023-03-17T22:38:32.550Z,5.40
2023-03-17T22:41:03.432Z,5.40
2023-03-17T22:43:30.279Z,5.30
2023-03-17T22:45:56.842Z,5.30
2023-03-17T22:48:23.449Z,5.20
2023-03-17T22:50:50.208Z,5.20
2023-03-17T22:53:16.803Z,5.10
2023-03-17T22:55:43.526Z,5.10
2023-03-17T22:58:10.493Z,5.10
2023-03-17T23:00:37.029Z,5.10
2023-03-17T23:03:04.064Z,5.00
2023-03-17T23:05:30.902Z,5.00
2023-03-17T23:07:57.492Z,5.00
2023-03-17T23:10:24.835Z,4.90
2023-03-17T23:12:51.972Z,4.90
2023-03-17T23:15:19.717Z,4.90
2023-03-17T23:17:47.100Z,4.90
2023-03-17T23:20:13.953Z,4.80
2023-03-17T23:22:40.507Z,4.90
2023-03-17T23:25:07.380Z,4.90
2023-03-17T23:27:34.413Z,4.80
2023-03-17T23:30:01.052Z,4.80
2023-03-17T23:32:27.656Z,4.80
2023-03-17T23:34:54.562Z,4.80
2023-03-17T23:37:21.574Z,4.80
2023-03-17T23:39:48.504Z,4.80
2023-03-17T23:42:17.011Z,4.80
2023-03-17T23:44:44.965Z,4.70
2023-03-17T23:47:11.800Z,4.70
2023-03-17T23:49:38.762Z,4.70
2023-03-17T23:52:05.503Z,4.70
2023-03-17T23:54:32.082Z,4.70
2023-03-17T23:56:58.764Z,4.70
2023-03-17T23:59:25.550Z,4.60
